createdAt,value
2018-11-25T00:00:24.859Z,101228.50
2018-11-25T00:01:27.350Z,101228.34
2018-11-25T00:02:26.924Z,101227.91
2018-11-25T00:03:26.622Z,101227.66
2018-11-25T00:04:28.021Z,101226.84
2018-11-25T00:05:28.626Z,101226.59
2018-11-25T00:06:29.080Z,101226.50
2018-11-25T00:07:34.623Z,101226.24
2018-11-25T00:08:29.488Z,101226.36
2018-11-25T00:09:31.124Z,101226.27
2018-11-25T00:10:31.592Z,101226.18
2018-11-25T00:11:31.988Z,101226.59
2018-11-25T00:12:32.447Z,101226.37
2018-11-25T00:13:33.176Z,101226.28
2018-11-25T00:14:33.678Z,101226.14
2018-11-25T00:15:34.143Z,101225.96
2018-11-25T00:16:34.539Z,101225.48
2018-11-25T00:17:34.944Z,101225.31
2018-11-25T00:18:35.299Z,101225.16
2018-11-25T00:18:43.746Z,101222.20
2018-11-25T00:19:45.028Z,101221.59
2018-11-25T00:20:45.407Z,101221.09
2018-11-25T00:21:46.743Z,101220.59
2018-11-25T00:22:46.226Z,101220.25
2018-11-25T00:23:46.747Z,101220.56
2018-11-25T00:24:47.454Z,101220.31
2018-11-25T00:25:47.877Z,101219.91
2018-11-25T00:26:48.359Z,101219.72
2018-11-25T00:27:48.711Z,101219.86
2018-11-25T00:28:49.083Z,101219.70
2018-11-25T00:29:49.499Z,101219.34
2018-11-25T00:30:49.954Z,101218.67
2018-11-25T00:31:50.756Z,101217.98
2018-11-25T00:32:51.369Z,101217.75
2018-11-25T00:33:51.743Z,101217.05
2018-11-25T00:34:52.154Z,101216.86
2018-11-25T00:35:52.548Z,101216.28
2018-11-25T00:36:51.937Z,101216.46
2018-11-25T00:37:53.335Z,101215.67
2018-11-25T00:38:53.915Z,101215.35
2018-11-25T00:39:54.692Z,101215.33
2018-11-25T00:40:55.122Z,101215.34
2018-11-25T00:41:55.479Z,101215.14
2018-11-25T00:42:56.192Z,101215.16
2018-11-25T00:43:56.630Z,101214.62
2018-11-25T00:44:57.193Z,101213.55
2018-11-25T00:45:57.548Z,101213.02
2018-11-25T00:46:57.934Z,101212.69
2018-11-25T00:47:58.552Z,101211.61
2018-11-25T00:48:59.089Z,101210.58
2018-11-25T00:49:59.449Z,101210.09
2018-11-25T00:50:59.870Z,101209.47
2018-11-25T00:52:00.427Z,101209.15
2018-11-25T00:53:01.374Z,101208.36
2018-11-25T00:54:01.777Z,101207.61
2018-11-25T00:55:02.375Z,101207.37
2018-11-25T00:56:01.823Z,101206.95
2018-11-25T00:57:03.207Z,101206.51
2018-11-25T00:58:03.683Z,101205.67
2018-11-25T00:59:04.187Z,101205.34
2018-11-25T01:00:04.620Z,101204.83
2018-11-25T01:01:05.085Z,101204.33
2018-11-25T01:02:05.808Z,101203.83
2018-11-25T01:03:05.403Z,101203.33
2018-11-25T01:04:07.246Z,101203.08
2018-11-25T01:05:07.039Z,101202.41
2018-11-25T01:06:08.556Z,101202.00
2018-11-25T01:06:16.958Z,101200.50
2018-11-25T01:07:18.491Z,101197.22
2018-11-25T01:08:18.943Z,101196.28
2018-11-25T01:09:19.382Z,101195.95
2018-11-25T01:10:20.293Z,101195.62
2018-11-25T01:11:20.630Z,101195.28
2018-11-25T01:12:21.064Z,101195.28
2018-11-25T01:13:21.507Z,101194.95
2018-11-25T01:14:21.964Z,101194.87
2018-11-25T01:15:22.415Z,101193.70
2018-11-25T01:16:23.260Z,101193.58
2018-11-25T01:17:24.097Z,101192.91
2018-11-25T01:18:24.921Z,101193.67
2018-11-25T01:19:25.357Z,101193.17
2018-11-25T01:20:25.848Z,101192.92
2018-11-25T01:21:26.381Z,101192.59
2018-11-25T01:22:26.911Z,101192.59
2018-11-25T01:23:27.368Z,101192.09
2018-11-25T01:24:27.751Z,101192.42
2018-11-25T01:25:28.190Z,101191.91
2018-11-25T01:26:29.047Z,101192.19
2018-11-25T01:27:29.159Z,101192.10
2018-11-25T01:28:29.491Z,101192.18
2018-11-25T01:29:29.955Z,101192.26
2018-11-25T01:30:30.351Z,101192.54
2018-11-25T01:31:30.751Z,101192.95
2018-11-25T01:32:31.479Z,101192.86
2018-11-25T01:33:31.934Z,101192.86
2018-11-25T01:34:32.400Z,101192.95
2018-11-25T01:35:33.007Z,101192.61
2018-11-25T01:36:33.593Z,101192.39
2018-11-25T01:37:33.946Z,101192.72
2018-11-25T01:38:34.426Z,101193.06
2018-11-25T01:39:34.063Z,101192.63
2018-11-25T01:40:34.137Z,101192.13
2018-11-25T01:41:35.684Z,101192.05
2018-11-25T01:42:34.961Z,101191.88
2018-11-25T01:43:36.568Z,101191.72
2018-11-25T01:44:36.979Z,101191.61
2018-11-25T01:45:37.426Z,101191.27
2018-11-25T01:46:37.586Z,101191.02
2018-11-25T01:47:38.006Z,101190.95
2018-11-25T01:48:38.465Z,101190.36
2018-11-25T01:49:39.139Z,101189.58
2018-11-25T01:50:39.561Z,101189.50
2018-11-25T01:50:48.563Z,101191.27
2018-11-25T01:51:49.897Z,101182.59
2018-11-25T01:52:50.287Z,101182.92
2018-11-25T01:53:50.652Z,101182.67
2018-11-25T01:54:51.123Z,101182.75
2018-11-25T01:55:51.514Z,101182.94
2018-11-25T01:56:51.900Z,101182.77
2018-11-25T01:57:52.483Z,101182.95
2018-11-25T01:58:52.963Z,101183.20
2018-11-25T01:59:53.413Z,101182.55
2018-11-25T02:00:53.846Z,101182.13
2018-11-25T02:01:53.272Z,101181.88
2018-11-25T02:02:54.669Z,101181.55
2018-11-25T02:03:55.387Z,101180.81
2018-11-25T02:04:55.878Z,101180.65
2018-11-25T02:05:56.334Z,101180.65
2018-11-25T02:06:56.864Z,101180.06
2018-11-25T02:07:57.256Z,101180.14
2018-11-25T02:08:57.775Z,101179.88
2018-11-25T02:09:58.267Z,101179.33
2018-11-25T02:10:58.739Z,101179.23
2018-11-25T02:11:59.132Z,101178.65
2018-11-25T02:12:59.569Z,101178.48
2018-11-25T02:14:00.474Z,101178.14
2018-11-25T02:15:00.898Z,101177.81
2018-11-25T02:16:01.333Z,101177.05
2018-11-25T02:17:01.771Z,101176.38
2018-11-25T02:18:02.244Z,101176.22
2018-11-25T02:19:02.696Z,101175.87
2018-11-25T02:20:03.233Z,101175.97
2018-11-25T02:21:03.698Z,101175.38
2018-11-25T02:22:04.083Z,101175.21
2018-11-25T02:23:04.457Z,101175.13
2018-11-25T02:24:04.985Z,101174.88
2018-11-25T02:25:05.503Z,101174.88
2018-11-25T02:26:05.927Z,101174.15
2018-11-25T02:27:06.416Z,101174.04
2018-11-25T02:28:06.932Z,101173.53
2018-11-25T02:29:07.524Z,101173.38
2018-11-25T02:30:08.003Z,101172.48
2018-11-25T02:31:08.554Z,101172.03
2018-11-25T02:32:08.678Z,101172.12
2018-11-25T02:33:09.590Z,101171.28
2018-11-25T02:34:10.108Z,101171.03
2018-11-25T02:35:10.535Z,101170.79
2018-11-25T02:36:10.935Z,101170.51
2018-11-25T02:36:19.257Z,101171.66
2018-11-25T02:37:20.664Z,101173.70
2018-11-25T02:38:21.190Z,101173.03
2018-11-25T02:39:21.685Z,101172.36
2018-11-25T02:40:22.308Z,101171.86
2018-11-25T02:41:23.055Z,101171.70
2018-11-25T02:42:23.473Z,101171.02
2018-11-25T02:43:23.846Z,101170.69
2018-11-25T02:44:24.299Z,101170.28
2018-11-25T02:45:24.798Z,101169.44
2018-11-25T02:46:25.168Z,101168.44
2018-11-25T02:47:25.551Z,101167.94
2018-11-25T02:48:26.012Z,101167.59
2018-11-25T02:49:26.449Z,101166.67
2018-11-25T02:50:26.625Z,101166.34
2018-11-25T02:51:26.291Z,101164.94
2018-11-25T02:52:28.256Z,101164.02
2018-11-25T02:53:28.938Z,101163.27
2018-11-25T02:54:29.015Z,101162.33
2018-11-25T02:55:29.677Z,101161.44
2018-11-25T02:56:30.061Z,101160.85
2018-11-25T02:57:30.529Z,101160.27
2018-11-25T02:58:31.354Z,101159.53
2018-11-25T02:59:31.755Z,101158.78
2018-11-25T03:00:32.313Z,101157.86
2018-11-25T03:01:32.802Z,101156.54
2018-11-25T03:02:33.165Z,101156.12
2018-11-25T03:03:33.521Z,101155.52
2018-11-25T03:04:34.006Z,101154.60
2018-11-25T03:05:34.560Z,101153.70
2018-11-25T03:06:35.287Z,101153.38
2018-11-25T03:07:35.919Z,101152.95
2018-11-25T03:08:36.327Z,101151.94
2018-11-25T03:09:36.908Z,101151.72
2018-11-25T03:10:37.539Z,101151.13
2018-11-25T03:11:38.136Z,101150.48
2018-11-25T03:12:38.634Z,101150.22
2018-11-25T03:13:39.295Z,101149.37
2018-11-25T03:14:39.761Z,101148.65
2018-11-25T03:15:39.879Z,101148.34
2018-11-25T03:16:40.518Z,101147.57
2018-11-25T03:17:40.911Z,101147.00
2018-11-25T03:18:41.282Z,101147.11
2018-11-25T03:19:41.668Z,101147.05
2018-11-25T03:20:42.167Z,101146.31
2018-11-25T03:21:42.421Z,101145.87
2018-11-25T03:21:51.912Z,101139.32
2018-11-25T03:22:51.464Z,101141.36
2018-11-25T03:23:51.833Z,101141.36
2018-11-25T03:24:52.193Z,101141.44
2018-11-25T03:25:52.621Z,101141.70
2018-11-25T03:26:53.026Z,101141.27
2018-11-25T03:27:53.051Z,101141.61
2018-11-25T03:28:54.055Z,101141.89
2018-11-25T03:29:54.749Z,101142.14
2018-11-25T03:30:54.795Z,101142.33
2018-11-25T03:31:55.612Z,101142.91
2018-11-25T03:32:55.343Z,101143.73
2018-11-25T03:33:56.336Z,101144.17
2018-11-25T03:34:56.753Z,101145.03
2018-11-25T03:35:57.337Z,101145.44
2018-11-25T03:36:57.790Z,101145.55
2018-11-25T03:37:58.182Z,101145.98
2018-11-25T03:38:58.614Z,101145.92
2018-11-25T03:39:59.031Z,101145.69
2018-11-25T03:40:59.576Z,101145.76
2018-11-25T03:42:00.079Z,101146.28
2018-11-25T03:43:00.733Z,101146.47
2018-11-25T03:44:01.116Z,101146.97
2018-11-25T03:45:01.401Z,101146.83
2018-11-25T03:46:06.028Z,101147.23
2018-11-25T03:47:01.759Z,101147.84
2018-11-25T03:48:03.271Z,101148.17
2018-11-25T03:49:03.296Z,101148.86
2018-11-25T03:50:03.960Z,101149.86
2018-11-25T03:51:04.516Z,101150.55
2018-11-25T03:52:04.812Z,101151.16
2018-11-25T03:53:05.176Z,101151.81
2018-11-25T03:54:05.927Z,101152.51
2018-11-25T03:55:06.653Z,101152.95
2018-11-25T03:56:07.076Z,101153.19
2018-11-25T03:57:07.835Z,101152.95
2018-11-25T03:58:08.519Z,101153.05
2018-11-25T03:59:09.081Z,101152.40
2018-11-25T04:00:09.784Z,101152.25
2018-11-25T04:01:10.316Z,101151.42
2018-11-25T04:02:11.050Z,101151.27
2018-11-25T04:03:11.590Z,101150.78
2018-11-25T04:04:11.984Z,101150.12
2018-11-25T04:05:12.447Z,101149.64
2018-11-25T04:06:12.936Z,101149.16
2018-11-25T04:07:13.871Z,101148.86
2018-11-25T04:08:14.510Z,101148.13
2018-11-25T04:08:22.588Z,101143.41
2018-11-25T04:09:24.090Z,101144.63
2018-11-25T04:10:24.614Z,101144.12
2018-11-25T04:11:25.321Z,101143.79
2018-11-25T04:12:25.298Z,101143.28
2018-11-25T04:13:26.018Z,101142.53
2018-11-25T04:14:26.497Z,101142.36
2018-11-25T04:15:26.936Z,101142.70
2018-11-25T04:16:27.856Z,101142.70
2018-11-25T04:17:27.857Z,101142.44
2018-11-25T04:18:28.407Z,101142.05
2018-11-25T04:19:29.806Z,101141.96
2018-11-25T04:20:29.408Z,101141.38
2018-11-25T04:21:29.963Z,101141.15
2018-11-25T04:22:30.582Z,101141.06
2018-11-25T04:23:31.005Z,101141.30
2018-11-25T04:24:31.741Z,101141.05
2018-11-25T04:25:32.280Z,101140.31
2018-11-25T04:26:32.708Z,101140.34
2018-11-25T04:27:33.197Z,101140.44
2018-11-25T04:28:33.572Z,101140.60
2018-11-25T04:29:33.938Z,101140.53
2018-11-25T04:30:34.424Z,101140.86
2018-11-25T04:31:34.979Z,101140.29
2018-11-25T04:32:35.399Z,101140.65
2018-11-25T04:33:35.746Z,101140.97
2018-11-25T04:34:36.076Z,101140.74
2018-11-25T04:35:36.530Z,101140.84
2018-11-25T04:36:37.007Z,101140.83
2018-11-25T04:37:37.452Z,101140.77
2018-11-25T04:38:38.206Z,101140.70
2018-11-25T04:39:38.926Z,101140.64
2018-11-25T04:40:39.608Z,101140.31
2018-11-25T04:41:40.012Z,101140.33
2018-11-25T04:42:40.609Z,101140.42
2018-11-25T04:43:41.162Z,101140.27
2018-11-25T04:44:41.532Z,101139.62
2018-11-25T04:45:42.087Z,101139.38
2018-11-25T04:46:42.503Z,101138.56
2018-11-25T04:47:43.034Z,101138.38
2018-11-25T04:48:43.560Z,101138.41
2018-11-25T04:49:43.975Z,101138.23
2018-11-25T04:50:44.408Z,101137.75
2018-11-25T04:51:44.838Z,101136.99
2018-11-25T04:52:45.421Z,101136.99
2018-11-25T04:52:54.433Z,101132.06
2018-11-25T04:53:55.831Z,101129.77
2018-11-25T04:54:56.504Z,101129.94
2018-11-25T04:55:57.380Z,101130.02
2018-11-25T04:56:58.241Z,101130.28
2018-11-25T04:57:58.582Z,101129.94
2018-11-25T04:58:59.350Z,101130.16
2018-11-25T04:59:58.684Z,101131.09
2018-11-25T05:01:00.165Z,101131.52
2018-11-25T05:02:00.829Z,101131.34
2018-11-25T05:03:01.361Z,101131.66
2018-11-25T05:04:02.025Z,101131.74
2018-11-25T05:05:02.377Z,101132.17
2018-11-25T05:06:02.414Z,101132.22
2018-11-25T05:07:03.066Z,101132.64
2018-11-25T05:08:03.465Z,101132.14
2018-11-25T05:09:03.822Z,101132.57
2018-11-25T05:10:04.241Z,101132.57
2018-11-25T05:11:04.755Z,101132.33
2018-11-25T05:12:05.468Z,101132.47
2018-11-25T05:13:05.785Z,101132.55
2018-11-25T05:14:06.370Z,101132.31
2018-11-25T05:15:06.689Z,101132.20
2018-11-25T05:16:07.131Z,101131.95
2018-11-25T05:17:07.444Z,101131.45
2018-11-25T05:18:07.825Z,101131.93
2018-11-25T05:19:08.214Z,101131.85
2018-11-25T05:20:08.731Z,101131.77
2018-11-25T05:21:08.779Z,101131.86
2018-11-25T05:22:09.213Z,101131.36
2018-11-25T05:23:09.589Z,101131.67
2018-11-25T05:24:10.022Z,101131.26
2018-11-25T05:25:10.507Z,101131.18
2018-11-25T05:26:11.012Z,101130.40
2018-11-25T05:27:11.435Z,101130.08
2018-11-25T05:28:11.860Z,101129.33
2018-11-25T05:29:12.468Z,101128.80
2018-11-25T05:30:13.048Z,101128.22
2018-11-25T05:31:13.686Z,101127.70
2018-11-25T05:32:14.110Z,101126.95
2018-11-25T05:33:14.891Z,101126.37
2018-11-25T05:34:15.432Z,101125.70
2018-11-25T05:35:15.797Z,101125.92
2018-11-25T05:36:16.183Z,101125.09
2018-11-25T05:37:16.576Z,101124.59
2018-11-25T05:38:16.970Z,101124.08
2018-11-25T05:39:18.374Z,101123.53
2018-11-25T05:39:26.823Z,101115.17
2018-11-25T05:40:28.143Z,101115.58
2018-11-25T05:41:28.883Z,101115.16
2018-11-25T05:42:29.269Z,101115.32
2018-11-25T05:43:29.713Z,101115.23
2018-11-25T05:44:30.203Z,101114.98
2018-11-25T05:45:30.572Z,101114.59
2018-11-25T05:46:30.958Z,101114.92
2018-11-25T05:47:31.304Z,101115.08
2018-11-25T05:48:31.819Z,101114.94
2018-11-25T05:49:36.683Z,101115.69
2018-11-25T05:50:32.051Z,101115.78
2018-11-25T05:51:33.486Z,101116.44
2018-11-25T05:52:33.800Z,101116.80
2018-11-25T05:53:34.182Z,101116.95
2018-11-25T05:54:34.558Z,101117.14
2018-11-25T05:55:35.132Z,101117.08
2018-11-25T05:56:35.547Z,101117.58
2018-11-25T05:57:35.763Z,101118.01
2018-11-25T05:58:36.154Z,101117.94
2018-11-25T05:59:36.691Z,101118.04
2018-11-25T06:00:37.138Z,101117.48
2018-11-25T06:01:37.617Z,101117.04
2018-11-25T06:02:37.987Z,101116.64
2018-11-25T06:03:38.568Z,101116.58
2018-11-25T06:04:39.013Z,101116.84
2018-11-25T06:05:39.425Z,101117.28
2018-11-25T06:06:39.899Z,101116.53
2018-11-25T06:07:40.426Z,101116.80
2018-11-25T06:08:40.772Z,101116.98
2018-11-25T06:09:41.301Z,101116.66
2018-11-25T06:10:42.560Z,101116.76
2018-11-25T06:11:41.211Z,101116.77
2018-11-25T06:12:42.579Z,101117.20
2018-11-25T06:13:42.993Z,101117.22
2018-11-25T06:14:43.403Z,101117.23
2018-11-25T06:15:43.862Z,101116.91
2018-11-25T06:16:44.267Z,101116.33
2018-11-25T06:17:44.605Z,101116.17
2018-11-25T06:18:45.041Z,101116.27
2018-11-25T06:19:45.463Z,101115.47
2018-11-25T06:20:45.818Z,101115.05
2018-11-25T06:21:45.406Z,101114.34
2018-11-25T06:22:46.828Z,101114.19
2018-11-25T06:23:47.328Z,101114.27
2018-11-25T06:24:47.810Z,101114.31
2018-11-25T06:25:48.644Z,101113.81
2018-11-25T06:26:49.303Z,101113.94
2018-11-25T06:26:57.683Z,101110.83
2018-11-25T06:27:58.489Z,101111.84
2018-11-25T06:28:59.152Z,101111.42
2018-11-25T06:29:59.644Z,101111.58
2018-11-25T06:31:00.147Z,101111.75
2018-11-25T06:32:00.690Z,101112.02
2018-11-25T06:33:01.085Z,101112.34
2018-11-25T06:34:01.519Z,101112.93
2018-11-25T06:35:02.095Z,101112.70
2018-11-25T06:36:02.558Z,101112.95
2018-11-25T06:37:02.534Z,101113.03
2018-11-25T06:38:03.141Z,101112.38
2018-11-25T06:39:03.727Z,101112.30
2018-11-25T06:40:04.216Z,101112.04
2018-11-25T06:41:03.574Z,101111.98
2018-11-25T06:42:04.996Z,101112.06
2018-11-25T06:43:05.515Z,101111.83
2018-11-25T06:44:06.331Z,101111.81
2018-11-25T06:45:06.712Z,101111.67
2018-11-25T06:46:07.119Z,101111.58
2018-11-25T06:47:07.599Z,101111.33
2018-11-25T06:48:07.689Z,101111.18
2018-11-25T06:49:08.050Z,101111.25
2018-11-25T06:50:08.478Z,101111.42
2018-11-25T06:51:08.969Z,101111.75
2018-11-25T06:52:09.910Z,101111.92
2018-11-25T06:53:10.438Z,101111.92
2018-11-25T06:54:10.896Z,101112.34
2018-11-25T06:55:11.344Z,101112.76
2018-11-25T06:56:11.986Z,101113.00
2018-11-25T06:57:11.928Z,101113.50
2018-11-25T06:58:13.499Z,101113.84
2018-11-25T06:59:14.124Z,101114.45
2018-11-25T07:00:14.190Z,101115.03
2018-11-25T07:01:14.301Z,101114.77
2018-11-25T07:02:14.895Z,101114.63
2018-11-25T07:03:14.923Z,101115.20
2018-11-25T07:04:15.466Z,101115.14
2018-11-25T07:05:16.037Z,101115.72
2018-11-25T07:06:16.531Z,101115.37
2018-11-25T07:07:17.363Z,101116.15
2018-11-25T07:08:17.833Z,101116.56
2018-11-25T07:09:18.300Z,101116.42
2018-11-25T07:10:18.796Z,101116.66
2018-11-25T07:10:27.189Z,101125.03
2018-11-25T07:11:28.686Z,101126.05
2018-11-25T07:12:29.042Z,101125.88
2018-11-25T07:13:29.400Z,101125.97
2018-11-25T07:14:29.990Z,101125.69
2018-11-25T07:15:30.642Z,101125.52
2018-11-25T07:16:31.287Z,101125.45
2018-11-25T07:17:31.745Z,101125.70
2018-11-25T07:18:32.407Z,101125.63
2018-11-25T07:19:32.899Z,101125.77
2018-11-25T07:20:33.562Z,101126.34
2018-11-25T07:21:34.247Z,101126.19
2018-11-25T07:22:34.669Z,101126.42
2018-11-25T07:23:35.168Z,101126.31
2018-11-25T07:24:35.648Z,101126.23
2018-11-25T07:25:36.167Z,101126.39
2018-11-25T07:26:38.009Z,101127.16
2018-11-25T07:27:36.159Z,101127.05
2018-11-25T07:28:36.540Z,101127.12
2018-11-25T07:29:37.869Z,101127.61
2018-11-25T07:30:38.660Z,101127.94
2018-11-25T07:31:38.397Z,101127.92
2018-11-25T07:32:38.660Z,101128.14
2018-11-25T07:33:40.588Z,101127.30
2018-11-25T07:34:41.149Z,101126.87
2018-11-25T07:35:41.587Z,101126.78
2018-11-25T07:36:42.215Z,101126.16
2018-11-25T07:37:41.435Z,101125.91
2018-11-25T07:38:42.007Z,101125.98
2018-11-25T07:39:42.257Z,101125.30
2018-11-25T07:40:42.896Z,101124.80
2018-11-25T07:41:43.394Z,101124.67
2018-11-25T07:42:44.264Z,101124.41
2018-11-25T07:43:44.778Z,101123.71
2018-11-25T07:44:45.346Z,101123.21
2018-11-25T07:45:46.012Z,101123.27
2018-11-25T07:46:46.641Z,101123.16
2018-11-25T07:47:47.475Z,101123.38
2018-11-25T07:48:48.052Z,101123.69
2018-11-25T07:49:48.495Z,101123.83
2018-11-25T07:50:49.083Z,101124.38
2018-11-25T07:51:49.441Z,101124.44
2018-11-25T07:52:49.957Z,101124.75
2018-11-25T07:53:50.652Z,101124.72
2018-11-25T07:54:51.131Z,101125.03
2018-11-25T07:55:51.785Z,101124.97
2018-11-25T07:56:52.370Z,101125.13
2018-11-25T07:57:52.912Z,101124.77
2018-11-25T07:58:53.472Z,101124.65
2018-11-25T07:59:53.996Z,101124.29
2018-11-25T08:00:54.632Z,101124.02
2018-11-25T08:01:55.905Z,101123.33
2018-11-25T08:02:55.395Z,101122.94
2018-11-25T08:03:55.546Z,101123.00
2018-11-25T08:04:56.064Z,101122.89
2018-11-25T08:05:56.956Z,101122.33
2018-11-25T08:06:57.412Z,101121.89
2018-11-25T08:07:59.004Z,101121.20
2018-11-25T08:08:59.340Z,101121.17
2018-11-25T08:10:00.204Z,101121.48
2018-11-25T08:10:59.557Z,101121.25
2018-11-25T08:11:59.947Z,101121.31
2018-11-25T08:13:00.587Z,101120.87
2018-11-25T08:14:02.144Z,101120.75
2018-11-25T08:15:01.855Z,101120.55
2018-11-25T08:16:02.417Z,101120.22
2018-11-25T08:17:03.023Z,101120.27
2018-11-25T08:18:04.026Z,101119.82
2018-11-25T08:19:04.748Z,101119.88
2018-11-25T08:20:05.786Z,101119.92
2018-11-25T08:21:06.570Z,101120.05
2018-11-25T08:22:07.141Z,101120.14
2018-11-25T08:23:07.542Z,101120.02
2018-11-25T08:24:07.999Z,101120.33
2018-11-25T08:25:08.859Z,101119.80
2018-11-25T08:26:09.581Z,101119.27
2018-11-25T08:27:10.134Z,101118.82
2018-11-25T08:28:10.998Z,101118.44
2018-11-25T08:29:11.408Z,101118.58
2018-11-25T08:30:11.945Z,101117.77
2018-11-25T08:31:12.577Z,101117.05
2018-11-25T08:32:13.435Z,101116.61
2018-11-25T08:33:13.764Z,101115.72
2018-11-25T08:34:14.259Z,101115.42
2018-11-25T08:35:14.865Z,101115.13
2018-11-25T08:36:15.281Z,101114.51
2018-11-25T08:37:16.654Z,101114.45
2018-11-25T08:38:17.411Z,101114.23
2018-11-25T08:39:16.734Z,101113.78
2018-11-25T08:40:17.735Z,101113.89
2018-11-25T08:41:18.623Z,101113.28
2018-11-25T08:42:18.232Z,101113.31
2018-11-25T08:43:19.125Z,101113.53
2018-11-25T08:44:19.818Z,101113.39
2018-11-25T08:45:20.265Z,101113.27
2018-11-25T08:46:20.615Z,101112.88
2018-11-25T08:47:21.295Z,101112.02
2018-11-25T08:47:31.693Z,101101.76
2018-11-25T08:48:31.298Z,101101.97
2018-11-25T08:49:31.652Z,101101.47
2018-11-25T08:50:31.881Z,101101.44
2018-11-25T08:51:32.762Z,101101.34
2018-11-25T08:52:33.432Z,101100.59
2018-11-25T08:53:34.293Z,101100.09
2018-11-25T08:54:34.477Z,101100.16
2018-11-25T08:55:35.075Z,101099.29
2018-11-25T08:56:35.825Z,101098.80
2018-11-25T08:57:36.432Z,101098.36
2018-11-25T08:58:37.194Z,101097.66
2018-11-25T08:59:37.292Z,101097.08
2018-11-25T09:00:38.062Z,101096.64
2018-11-25T09:01:38.791Z,101096.11
2018-11-25T09:02:39.411Z,101095.95
2018-11-25T09:03:40.241Z,101095.67
2018-11-25T09:04:41.094Z,101095.09
2018-11-25T09:05:41.485Z,101094.64
2018-11-25T09:06:41.959Z,101093.65
2018-11-25T09:07:42.838Z,101093.29
2018-11-25T09:08:42.682Z,101092.55
2018-11-25T09:09:44.190Z,101092.33
2018-11-25T09:10:43.486Z,101091.30
2018-11-25T09:11:43.955Z,101090.53
2018-11-25T09:12:44.242Z,101089.42
2018-11-25T09:13:44.960Z,101089.13
2018-11-25T09:14:45.392Z,101088.67
2018-11-25T09:15:46.060Z,101087.64
2018-11-25T09:16:46.793Z,101086.90
2018-11-25T09:17:46.849Z,101086.38
2018-11-25T09:18:47.455Z,101086.41
2018-11-25T09:19:48.181Z,101085.58
2018-11-25T09:20:48.908Z,101085.11
2018-11-25T09:21:49.412Z,101084.48
2018-11-25T09:22:49.860Z,101084.28
2018-11-25T09:23:50.072Z,101083.65
2018-11-25T09:24:50.454Z,101083.19
2018-11-25T09:25:51.160Z,101082.70
2018-11-25T09:26:51.895Z,101082.14
2018-11-25T09:27:52.415Z,101081.86
2018-11-25T09:28:53.035Z,101081.53
2018-11-25T09:29:53.651Z,101080.63
2018-11-25T09:30:53.862Z,101080.57
2018-11-25T09:31:54.430Z,101079.75
2018-11-25T09:32:54.940Z,101079.10
2018-11-25T09:33:54.963Z,101078.05
2018-11-25T09:34:55.205Z,101077.83
2018-11-25T09:35:55.345Z,101076.86
2018-11-25T09:36:55.763Z,101076.06
2018-11-25T09:37:56.318Z,101075.51
2018-11-25T09:38:57.173Z,101075.02
2018-11-25T09:39:57.742Z,101074.30
2018-11-25T09:40:59.501Z,101073.41
2018-11-25T09:41:58.707Z,101072.20
2018-11-25T09:42:59.115Z,101071.70
2018-11-25T09:43:59.642Z,101070.83
2018-11-25T09:45:00.141Z,101069.83
2018-11-25T09:46:00.559Z,101069.43
2018-11-25T09:47:01.220Z,101068.52
2018-11-25T09:48:01.988Z,101068.53
2018-11-25T09:49:02.414Z,101068.39
2018-11-25T09:50:02.788Z,101067.81
2018-11-25T09:51:03.212Z,101067.64
2018-11-25T09:52:04.156Z,101067.73
2018-11-25T09:53:04.597Z,101068.00
2018-11-25T09:54:04.902Z,101067.68
2018-11-25T09:55:05.719Z,101067.19
2018-11-25T09:56:06.937Z,101067.31
2018-11-25T09:57:06.356Z,101066.98
2018-11-25T09:58:06.821Z,101066.43
2018-11-25T09:59:07.371Z,101066.08
2018-11-25T10:00:07.952Z,101065.94
2018-11-25T10:01:07.953Z,101065.83
2018-11-25T10:02:08.646Z,101065.41
2018-11-25T10:03:10.166Z,101065.00
2018-11-25T10:04:09.934Z,101064.58
2018-11-25T10:05:10.848Z,101063.82
2018-11-25T10:06:11.139Z,101063.14
2018-11-25T10:07:11.676Z,101062.33
2018-11-25T10:08:42.780Z,101052.56
2018-11-25T10:09:42.525Z,101052.31
2018-11-25T10:10:42.853Z,101052.17
2018-11-25T10:11:44.408Z,101051.58
2018-11-25T10:12:44.930Z,101051.27
2018-11-25T10:13:44.395Z,101050.89
2018-11-25T10:14:44.765Z,101050.75
2018-11-25T10:15:45.136Z,101049.94
2018-11-25T10:16:45.546Z,101049.77
2018-11-25T10:17:46.892Z,101049.45
2018-11-25T10:18:47.411Z,101049.31
2018-11-25T10:19:47.843Z,101048.83
2018-11-25T10:20:48.210Z,101048.34
2018-11-25T10:21:48.765Z,101048.54
2018-11-25T10:22:49.307Z,101047.98
2018-11-25T10:23:50.095Z,101047.67
2018-11-25T10:24:50.523Z,101047.58
2018-11-25T10:25:51.025Z,101047.50
2018-11-25T10:26:51.549Z,101047.33
2018-11-25T10:27:51.990Z,101046.74
2018-11-25T10:28:52.712Z,101046.30
2018-11-25T10:29:53.142Z,101045.94
2018-11-25T10:30:56.060Z,101045.17
2018-11-25T10:31:52.906Z,101043.94
2018-11-25T10:32:56.231Z,101043.73
2018-11-25T10:33:54.080Z,101043.52
2018-11-25T10:34:55.583Z,101042.80
2018-11-25T10:35:56.335Z,101042.64
2018-11-25T10:36:56.763Z,101041.84
2018-11-25T10:37:57.293Z,101041.00
2018-11-25T10:38:57.843Z,101040.46
2018-11-25T10:39:58.535Z,101039.88
2018-11-25T10:40:58.037Z,101039.64
2018-11-25T10:41:59.483Z,101039.59
2018-11-25T10:42:59.917Z,101039.34
2018-11-25T10:44:00.382Z,101039.27
2018-11-25T10:45:00.778Z,101038.47
2018-11-25T10:46:01.161Z,101038.17
2018-11-25T10:47:01.753Z,101037.42
2018-11-25T10:48:02.221Z,101037.32
2018-11-25T10:49:02.702Z,101036.77
2018-11-25T10:50:03.135Z,101035.70
2018-11-25T10:51:03.758Z,101035.56
2018-11-25T10:52:04.202Z,101035.12
2018-11-25T10:53:04.605Z,101034.73
2018-11-25T10:54:05.137Z,101034.21
2018-11-25T10:55:05.617Z,101032.92
2018-11-25T10:56:06.022Z,101032.63
2018-11-25T10:57:06.519Z,101031.73
2018-11-25T10:58:07.100Z,101030.84
2018-11-25T10:59:07.590Z,101030.14
2018-11-25T11:00:08.101Z,101029.17
2018-11-25T11:01:08.543Z,101028.44
2018-11-25T11:02:08.241Z,101027.11
2018-11-25T11:02:17.285Z,101019.59
2018-11-25T11:03:17.742Z,101018.70
2018-11-25T11:04:17.218Z,101018.28
2018-11-25T11:05:18.552Z,101018.11
2018-11-25T11:06:18.988Z,101017.27
2018-11-25T11:07:19.646Z,101016.91
2018-11-25T11:08:20.065Z,101015.89
2018-11-25T11:09:20.567Z,101015.14
2018-11-25T11:10:21.112Z,101014.56
2018-11-25T11:11:21.493Z,101014.14
2018-11-25T11:12:22.133Z,101013.60
2018-11-25T11:13:22.540Z,101012.68
2018-11-25T11:14:23.006Z,101012.09
2018-11-25T11:15:23.318Z,101010.92
2018-11-25T11:16:23.733Z,101009.91
2018-11-25T11:17:24.427Z,101008.93
2018-11-25T11:18:25.307Z,101008.50
2018-11-25T11:19:25.924Z,101007.61
2018-11-25T11:20:26.394Z,101006.63